sensor_id;sensor_type;location;lat;lon;timestamp;pressure;altitude;pressure_sealevel;temperature;humidity
34674;BME280;20879;55.668;37.858;2023-06-04T00:01:37;99963.00;;;5.71;89.79
34674;BME280;20879;55.668;37.858;2023-06-04T00:04:07;99964.72;;;5.69;89.68
34674;BME280;20879;55.668;37.858;2023-06-04T00:06:36;99959.56;;;5.67;89.44
34674;BME280;20879;55.668;37.858;2023-06-04T00:09:12;99961.28;;;5.67;89.40
34674;BME280;20879;55.668;37.858;2023-06-04T00:11:42;99957.81;;;5.65;89.04
34674;BME280;20879;55.668;37.858;2023-06-04T00:14:13;99964.66;;;5.63;89.02
34674;BME280;20879;55.668;37.858;2023-06-04T00:16:55;99976.63;;;5.62;89.08
34674;BME280;20879;55.668;37.858;2023-06-04T00:19:25;99975.78;;;5.63;88.44
34674;BME280;20879;55.668;37.858;2023-06-04T00:21:55;99957.72;;;5.51;88.60
34674;BME280;20879;55.668;37.858;2023-06-04T00:24:24;99975.72;;;5.52;88.47
34674;BME280;20879;55.668;37.858;2023-06-04T00:26:59;99978.31;;;5.55;88.43
34674;BME280;20879;55.668;37.858;2023-06-04T00:29:33;99977.41;;;5.53;88.46
34674;BME280;20879;55.668;37.858;2023-06-04T00:32:06;99978.25;;;5.51;88.09
34674;BME280;20879;55.668;37.858;2023-06-04T00:34:36;99979.94;;;5.49;88.77
34674;BME280;20879;55.668;37.858;2023-06-04T00:37:05;99985.03;;;5.42;88.52
34674;BME280;20879;55.668;37.858;2023-06-04T00:39:35;99990.94;;;5.35;89.16
34674;BME280;20879;55.668;37.858;2023-06-04T00:42:05;99987.50;;;5.32;89.21
34674;BME280;20879;55.668;37.858;2023-06-04T00:44:35;99990.03;;;5.29;89.17
34674;BME280;20879;55.668;37.858;2023-06-04T00:47:06;99990.00;;;5.27;89.28
34674;BME280;20879;55.668;37.858;2023-06-04T00:49:41;100000.28;;;5.27;89.18
34674;BME280;20879;55.668;37.858;2023-06-04T00:52:11;99989.16;;;5.30;88.94
34674;BME280;20879;55.668;37.858;2023-06-04T00:54:43;99949.56;;;5.06;89.17
34674;BME280;20879;55.668;37.858;2023-06-04T00:57:12;99996.91;;;5.34;88.77
34674;BME280;20879;55.668;37.858;2023-06-04T00:59:41;100003.81;;;5.38;88.85
34674;BME280;20879;55.668;37.858;2023-06-04T01:02:15;100005.56;;;5.42;88.81
34674;BME280;20879;55.668;37.858;2023-06-04T01:04:54;99960.19;;;5.43;88.73
34674;BME280;20879;55.668;37.858;2023-06-04T01:07:33;100002.72;;;6.01;87.30
34674;BME280;20879;55.668;37.858;2023-06-04T01:10:15;100013.22;;;6.30;86.10
34674;BME280;20879;55.668;37.858;2023-06-04T01:12:46;100001.34;;;6.55;85.68
34674;BME280;20879;55.668;37.858;2023-06-04T01:15:15;100010.06;;;6.82;84.18
34674;BME280;20879;55.668;37.858;2023-06-04T01:17:50;100008.50;;;7.12;82.88
34674;BME280;20879;55.668;37.858;2023-06-04T01:20:27;100004.28;;;7.48;81.44
34674;BME280;20879;55.668;37.858;2023-06-04T01:23:32;100006.03;;;7.87;79.77
34674;BME280;20879;55.668;37.858;2023-06-04T01:26:03;100011.22;;;8.08;78.41
34674;BME280;20879;55.668;37.858;2023-06-04T01:28:34;100000.91;;;8.26;77.09
34674;BME280;20879;55.668;37.858;2023-06-04T01:31:04;100011.19;;;8.37;76.09
34674;BME280;20879;55.668;37.858;2023-06-04T01:33:37;100008.63;;;8.54;75.17
34674;BME280;20879;55.668;37.858;2023-06-04T01:36:07;100017.22;;;8.56;74.71
34674;BME280;20879;55.668;37.858;2023-06-04T01:38:44;100022.38;;;8.67;74.21
34674;BME280;20879;55.668;37.858;2023-06-04T01:41:14;100017.25;;;8.19;74.68
34674;BME280;20879;55.668;37.858;2023-06-04T01:43:43;100024.03;;;7.47;75.99
34674;BME280;20879;55.668;37.858;2023-06-04T01:46:13;100034.19;;;7.01;77.98
34674;BME280;20879;55.668;37.858;2023-06-04T01:48:45;100041.75;;;6.73;79.05
34674;BME280;20879;55.668;37.858;2023-06-04T01:51:15;100034.78;;;6.51;80.29
34674;BME280;20879;55.668;37.858;2023-06-04T01:53:50;100033.00;;;6.39;80.84
34674;BME280;20879;55.668;37.858;2023-06-04T01:56:19;100033.75;;;6.25;81.66
34674;BME280;20879;55.668;37.858;2023-06-04T01:58:50;100049.19;;;6.28;81.92
34674;BME280;20879;55.668;37.858;2023-06-04T02:01:19;100041.41;;;6.21;82.27
34674;BME280;20879;55.668;37.858;2023-06-04T02:03:50;100049.13;;;6.21;82.16
34674;BME280;20879;55.668;37.858;2023-06-04T02:06:20;100055.16;;;6.21;82.71
34674;BME280;20879;55.668;37.858;2023-06-04T02:08:51;100052.56;;;6.21;82.36
34674;BME280;20879;55.668;37.858;2023-06-04T02:11:21;100040.50;;;6.11;83.14
34674;BME280;20879;55.668;37.858;2023-06-04T02:13:56;100067.97;;;6.18;82.95
34674;BME280;20879;55.668;37.858;2023-06-04T02:16:26;100060.28;;;6.18;83.15
34674;BME280;20879;55.668;37.858;2023-06-04T02:18:58;100061.13;;;6.20;83.24
34674;BME280;20879;55.668;37.858;2023-06-04T02:21:28;100056.00;;;6.22;83.64
34674;BME280;20879;55.668;37.858;2023-06-04T02:23:57;100061.16;;;6.26;83.42
34674;BME280;20879;55.668;37.858;2023-06-04T02:26:27;100061.16;;;6.26;83.48
34674;BME280;20879;55.668;37.858;2023-06-04T02:29:02;100069.81;;;6.33;83.38
34674;BME280;20879;55.668;37.858;2023-06-04T02:31:31;100064.66;;;6.32;83.49
34674;BME280;20879;55.668;37.858;2023-06-04T02:34:08;100065.53;;;6.38;83.58
34674;BME280;20879;55.668;37.858;2023-06-04T02:36:38;100076.72;;;6.42;83.29
34674;BME280;20879;55.668;37.858;2023-06-04T02:39:07;100078.41;;;6.37;83.39
34674;BME280;20879;55.668;37.858;2023-06-04T02:41:37;100083.63;;;6.44;83.30
34674;BME280;20879;55.668;37.858;2023-06-04T02:44:17;100093.91;;;6.44;83.49
34674;BME280;20879;55.668;37.858;2023-06-04T02:46:47;100097.38;;;6.50;83.46
34674;BME280;20879;55.668;37.858;2023-06-04T02:49:18;100098.25;;;6.53;83.54
34674;BME280;20879;55.668;37.858;2023-06-04T02:51:59;100106.88;;;6.61;83.56
34674;BME280;20879;55.668;37.858;2023-06-04T02:54:35;100104.31;;;6.63;83.49
34674;BME280;20879;55.668;37.858;2023-06-04T02:57:05;100108.63;;;6.65;83.11
34674;BME280;20879;55.668;37.858;2023-06-04T02:59:35;100111.25;;;6.72;83.08
34674;BME280;20879;55.668;37.858;2023-06-04T03:02:16;100120.72;;;6.76;83.29
34674;BME280;20879;55.668;37.858;2023-06-04T03:04:47;100100.09;;;6.70;83.25
34674;BME280;20879;55.668;37.858;2023-06-04T03:07:17;100118.19;;;6.85;82.75
34674;BME280;20879;55.668;37.858;2023-06-04T03:09:49;100118.28;;;6.97;82.70
34674;BME280;20879;55.668;37.858;2023-06-04T03:12:18;100117.38;;;6.95;82.27
34674;BME280;20879;55.668;37.858;2023-06-04T03:14:53;100126.03;;;7.02;82.85
34674;BME280;20879;55.668;37.858;2023-06-04T03:17:23;100131.22;;;7.11;82.42
34674;BME280;20879;55.668;37.858;2023-06-04T03:19:59;100109.72;;;7.03;82.32
34674;BME280;20879;55.668;37.858;2023-06-04T03:22:31;100121.78;;;7.09;81.83
34674;BME280;20879;55.668;37.858;2023-06-04T03:25:03;100145.91;;;7.26;82.12
34674;BME280;20879;55.668;37.858;2023-06-04T03:27:37;100152.78;;;7.33;81.93
34674;BME280;20879;55.668;37.858;2023-06-04T03:30:08;100151.94;;;7.33;81.37
34674;BME280;20879;55.668;37.858;2023-06-04T03:32:59;100153.06;;;8.08;79.54
34674;BME280;20879;55.668;37.858;2023-06-04T03:35:31;100147.13;;;8.75;76.43
34674;BME280;20879;55.668;37.858;2023-06-04T03:38:07;100161.69;;;9.18;75.33
34674;BME280;20879;55.668;37.858;2023-06-04T03:40:38;100160.78;;;9.30;74.20
34674;BME280;20879;55.668;37.858;2023-06-04T03:43:14;100166.84;;;9.29;73.90
34674;BME280;20879;55.668;37.858;2023-06-04T03:45:44;100167.66;;;9.38;73.84
34674;BME280;20879;55.668;37.858;2023-06-04T03:48:19;100171.94;;;9.52;73.71
34674;BME280;20879;55.668;37.858;2023-06-04T03:50:50;100156.44;;;9.45;73.04
34674;BME280;20879;55.668;37.858;2023-06-04T03:53:20;100184.75;;;9.76;72.81
34674;BME280;20879;55.668;37.858;2023-06-04T03:55:50;100175.31;;;9.66;72.77
34674;BME280;20879;55.668;37.858;2023-06-04T03:58:20;100177.91;;;9.71;72.70
34674;BME280;20879;55.668;37.858;2023-06-04T04:00:57;100182.19;;;9.69;72.39
34674;BME280;20879;55.668;37.858;2023-06-04T04:03:28;100171.94;;;9.52;71.83
34674;BME280;20879;55.668;37.858;2023-06-04T04:06:02;100171.97;;;9.36;72.50
34674;BME280;20879;55.668;37.858;2023-06-04T04:08:32;100172.84;;;9.31;73.12
34674;BME280;20879;55.668;37.858;2023-06-04T04:11:01;100190.03;;;9.47;73.16
34674;BME280;20879;55.668;37.858;2023-06-04T04:13:31;100188.34;;;9.41;72.80
34674;BME280;20879;55.668;37.858;2023-06-04T04:16:01;100184.91;;;9.35;73.00
34674;BME280;20879;55.668;37.858;2023-06-04T04:18:32;100187.47;;;9.39;72.92
34674;BME280;20879;55.668;37.858;2023-06-04T04:21:05;100189.19;;;9.43;73.10
34674;BME280;20879;55.668;37.858;2023-06-04T04:23:40;100190.00;;;9.49;72.72
34674;BME280;20879;55.668;37.858;2023-06-04T04:26:10;100197.78;;;9.45;72.77
34674;BME280;20879;55.668;37.858;2023-06-04T04:28:46;100201.25;;;9.32;72.82
34674;BME280;20879;55.668;37.858;2023-06-04T04:31:16;100195.28;;;9.25;72.96
34674;BME280;20879;55.668;37.858;2023-06-04T04:33:51;100203.00;;;9.30;73.33
34674;BME280;20879;55.668;37.858;2023-06-04T04:36:22;100196.09;;;9.32;72.55
34674;BME280;20879;55.668;37.858;2023-06-04T04:38:58;100194.41;;;9.22;71.69
34674;BME280;20879;55.668;37.858;2023-06-04T04:41:38;100200.44;;;9.15;72.09
34674;BME280;20879;55.668;37.858;2023-06-04T04:44:11;100197.84;;;9.18;72.47
34674;BME280;20879;55.668;37.858;2023-06-04T04:46:41;100203.88;;;9.20;72.70
34674;BME280;20879;55.668;37.858;2023-06-04T04:49:10;100137.59;;;8.97;72.06
34674;BME280;20879;55.668;37.858;2023-06-04T04:51:47;100212.50;;;9.33;71.58
34674;BME280;20879;55.668;37.858;2023-06-04T04:54:18;100212.47;;;9.31;71.27
34674;BME280;20879;55.668;37.858;2023-06-04T04:56:47;100208.16;;;9.33;70.96
34674;BME280;20879;55.668;37.858;2023-06-04T04:59:48;100215.06;;;9.34;71.08
34674;BME280;20879;55.668;37.858;2023-06-04T05:02:23;100206.41;;;9.40;70.82
34674;BME280;20879;55.668;37.858;2023-06-04T05:04:57;100215.88;;;9.42;71.14
34674;BME280;20879;55.668;37.858;2023-06-04T05:07:30;100204.66;;;9.50;71.45
34674;BME280;20879;55.668;37.858;2023-06-04T05:10:14;100209.81;;;9.59;71.51
34674;BME280;20879;55.668;37.858;2023-06-04T05:12:52;100201.19;;;9.60;71.25
34674;BME280;20879;55.668;37.858;2023-06-04T05:15:34;100205.47;;;9.70;70.56
34674;BME280;20879;55.668;37.858;2023-06-04T05:18:04;100217.53;;;9.70;70.66
34674;BME280;20879;55.668;37.858;2023-06-04T05:20:36;100220.06;;;9.84;70.46
34674;BME280;20879;55.668;37.858;2023-06-04T05:23:11;100205.38;;;9.93;68.75
34674;BME280;20879;55.668;37.858;2023-06-04T05:25:48;100212.28;;;9.90;68.83
34674;BME280;20879;55.668;37.858;2023-06-04T05:28:20;100212.31;;;9.80;68.63
34674;BME280;20879;55.668;37.858;2023-06-04T05:30:52;100217.50;;;9.80;67.11
34674;BME280;20879;55.668;37.858;2023-06-04T05:33:30;100201.16;;;9.72;67.74
34674;BME280;20879;55.668;37.858;2023-06-04T05:36:05;100224.41;;;9.80;67.53
34674;BME280;20879;55.668;37.858;2023-06-04T05:38:43;100220.03;;;9.93;67.90
34674;BME280;20879;55.668;37.858;2023-06-04T05:41:21;100219.97;;;10.05;66.23
34674;BME280;20879;55.668;37.858;2023-06-04T05:43:51;100219.97;;;10.07;65.47
34674;BME280;20879;55.668;37.858;2023-06-04T05:46:21;100218.22;;;10.10;66.15
34674;BME280;20879;55.668;37.858;2023-06-04T05:48:51;100212.97;;;10.24;65.69
34674;BME280;20879;55.668;37.858;2023-06-04T05:51:23;100217.28;;;10.24;64.71
34674;BME280;20879;55.668;37.858;2023-06-04T05:53:54;100215.53;;;10.27;64.75
34674;BME280;20879;55.668;37.858;2023-06-04T05:56:31;100228.47;;;10.29;64.76
34674;BME280;20879;55.668;37.858;2023-06-04T05:59:00;100215.47;;;10.44;64.04
34674;BME280;20879;55.668;37.858;2023-06-04T06:01:30;100213.69;;;10.51;63.86
34674;BME280;20879;55.668;37.858;2023-06-04T06:03:59;100229.16;;;10.63;63.67
34674;BME280;20879;55.668;37.858;2023-06-04T06:06:30;100205.81;;;10.65;62.36
34674;BME280;20879;55.668;37.858;2023-06-04T06:09:07;100231.56;;;10.87;61.72
34674;BME280;20879;55.668;37.858;2023-06-04T06:11:43;100236.59;;;11.02;61.54
34674;BME280;20879;55.668;37.858;2023-06-04T06:14:13;100230.34;;;11.26;60.79
34674;BME280;20879;55.668;37.858;2023-06-04T06:16:48;100224.06;;;11.49;60.65
34674;BME280;20879;55.668;37.858;2023-06-04T06:19:17;100205.19;;;11.33;61.06
34674;BME280;20879;55.668;37.858;2023-06-04T06:21:47;100218.91;;;11.44;60.04
34674;BME280;20879;55.668;37.858;2023-06-04T06:24:19;100214.56;;;11.49;60.24
34674;BME280;20879;55.668;37.858;2023-06-04T06:26:54;100221.38;;;11.55;59.17
34674;BME280;20879;55.668;37.858;2023-06-04T06:29:24;100230.78;;;11.64;58.95
34674;BME280;20879;55.668;37.858;2023-06-04T06:31:54;100237.50;;;11.83;58.54
34674;BME280;20879;55.668;37.858;2023-06-04T06:34:24;100234.75;;;11.97;56.95
34674;BME280;20879;55.668;37.858;2023-06-04T06:36:54;100217.50;;;11.93;56.16
34674;BME280;20879;55.668;37.858;2023-06-04T06:39:32;100232.00;;;12.11;57.07
34674;BME280;20879;55.668;37.858;2023-06-04T06:42:01;100232.69;;;12.22;57.09
34674;BME280;20879;55.668;37.858;2023-06-04T06:44:36;100212.97;;;12.09;57.17
34674;BME280;20879;55.668;37.858;2023-06-04T06:47:06;100223.25;;;12.18;56.41
34674;BME280;20879;55.668;37.858;2023-06-04T06:49:41;100221.56;;;12.14;56.43
34674;BME280;20879;55.668;37.858;2023-06-04T06:52:11;100227.44;;;12.29;55.95
34674;BME280;20879;55.668;37.858;2023-06-04T06:54:49;100224.03;;;12.83;54.47
34674;BME280;20879;55.668;37.858;2023-06-04T06:57:19;100172.88;;;12.85;53.05
34674;BME280;20879;55.668;37.858;2023-06-04T06:59:54;100220.09;;;13.10;51.78
34674;BME280;20879;55.668;37.858;2023-06-04T07:02:23;100214.44;;;12.86;52.34
34674;BME280;20879;55.668;37.858;2023-06-04T07:04:58;100218.00;;;12.79;53.44
34674;BME280;20879;55.668;37.858;2023-06-04T07:07:32;100232.56;;;12.89;53.64
34674;BME280;20879;55.668;37.858;2023-06-04T07:10:04;100227.41;;;12.86;53.41
34674;BME280;20879;55.668;37.858;2023-06-04T07:12:34;100214.34;;;12.91;53.57
34674;BME280;20879;55.668;37.858;2023-06-04T07:15:04;100241.91;;;13.01;52.80
34674;BME280;20879;55.668;37.858;2023-06-04T07:17:36;100240.38;;;13.41;52.35
34674;BME280;20879;55.668;37.858;2023-06-04T07:20:07;100230.72;;;13.91;51.23
34674;BME280;20879;55.668;37.858;2023-06-04T07:22:38;100230.47;;;14.43;49.96
34674;BME280;20879;55.668;37.858;2023-06-04T07:25:09;100226.50;;;14.65;48.69
34674;BME280;20879;55.668;37.858;2023-06-04T07:27:38;100226.50;;;15.01;49.35
34674;BME280;20879;55.668;37.858;2023-06-04T07:30:09;100224.09;;;14.56;47.83
34674;BME280;20879;55.668;37.858;2023-06-04T07:32:46;100231.56;;;13.92;48.37
34674;BME280;20879;55.668;37.858;2023-06-04T07:35:23;100229.09;;;13.42;50.19
34674;BME280;20879;55.668;37.858;2023-06-04T07:37:53;100237.34;;;13.62;50.44
34674;BME280;20879;55.668;37.858;2023-06-04T07:40:24;100240.44;;;13.83;50.15
34674;BME280;20879;55.668;37.858;2023-06-04T07:43:04;100249.88;;;13.87;47.39
34674;BME280;20879;55.668;37.858;2023-06-04T07:45:33;100213.13;;;13.60;48.42
34674;BME280;20879;55.668;37.858;2023-06-04T07:48:03;100217.50;;;14.01;47.82
34674;BME280;20879;55.668;37.858;2023-06-04T07:50:33;100240.56;;;14.19;46.20
34674;BME280;20879;55.668;37.858;2023-06-04T07:53:07;100234.81;;;14.44;46.82
34674;BME280;20879;55.668;37.858;2023-06-04T07:55:48;100208.91;;;15.10;45.36
34674;BME280;20879;55.668;37.858;2023-06-04T07:58:18;100221.41;;;15.63;44.67
34674;BME280;20879;55.668;37.858;2023-06-04T08:00:48;100216.97;;;15.65;44.58
34674;BME280;20879;55.668;37.858;2023-06-04T08:03:18;100219.81;;;15.57;44.99
34674;BME280;20879;55.668;37.858;2023-06-04T08:05:53;100213.13;;;15.47;44.12
34674;BME280;20879;55.668;37.858;2023-06-04T08:08:22;100228.13;;;15.06;43.10
34674;BME280;20879;55.668;37.858;2023-06-04T08:10:54;100226.22;;;14.78;43.84
34674;BME280;20879;55.668;37.858;2023-06-04T08:13:24;100243.69;;;14.73;44.73
34674;BME280;20879;55.668;37.858;2023-06-04T08:15:54;100241.50;;;14.92;44.16
34674;BME280;20879;55.668;37.858;2023-06-04T08:18:48;100237.22;;;15.24;44.00
34674;BME280;20879;55.668;37.858;2023-06-04T08:21:38;100238.47;;;15.09;44.06
34674;BME280;20879;55.668;37.858;2023-06-04T08:24:14;100194.19;;;14.73;43.89
34674;BME280;20879;55.668;37.858;2023-06-04T08:27:05;100246.03;;;14.85;43.50
34674;BME280;20879;55.668;37.858;2023-06-04T08:29:36;100250.53;;;14.38;43.52
34674;BME280;20879;55.668;37.858;2023-06-04T08:32:32;100254.66;;;14.09;43.68
34674;BME280;20879;55.668;37.858;2023-06-04T08:35:09;100256.88;;;13.85;44.68
34674;BME280;20879;55.668;37.858;2023-06-04T08:37:44;100246.75;;;13.70;43.71
34674;BME280;20879;55.668;37.858;2023-06-04T08:40:15;100253.81;;;13.63;43.15
34674;BME280;20879;55.668;37.858;2023-06-04T08:42:48;100248.28;;;13.80;43.88
34674;BME280;20879;55.668;37.858;2023-06-04T08:45:20;100248.09;;;14.31;42.94
34674;BME280;20879;55.668;37.858;2023-06-04T08:47:50;100238.59;;;14.68;42.02
34674;BME280;20879;55.668;37.858;2023-06-04T08:50:21;100235.31;;;14.60;42.04
34674;BME280;20879;55.668;37.858;2023-06-04T08:52:53;100246.03;;;14.46;42.00
34674;BME280;20879;55.668;37.858;2023-06-04T08:55:30;100244.66;;;14.29;42.54
34674;BME280;20879;55.668;37.858;2023-06-04T08:58:09;100249.78;;;13.92;43.73
34674;BME280;20879;55.668;37.858;2023-06-04T09:00:41;100251.06;;;13.72;44.17
34674;BME280;20879;55.668;37.858;2023-06-04T09:03:11;100210.81;;;13.45;43.89
34674;BME280;20879;55.668;37.858;2023-06-04T09:05:49;100237.03;;;13.33;44.49
34674;BME280;20879;55.668;37.858;2023-06-04T09:08:26;100261.16;;;13.41;45.21
34674;BME280;20879;55.668;37.858;2023-06-04T09:11:05;100254.81;;;13.57;44.89
34674;BME280;20879;55.668;37.858;2023-06-04T09:13:43;100255.22;;;13.81;44.28
34674;BME280;20879;55.668;37.858;2023-06-04T09:16:17;100236.50;;;14.06;43.63
34674;BME280;20879;55.668;37.858;2023-06-04T09:18:48;100245.38;;;14.36;42.84
34674;BME280;20879;55.668;37.858;2023-06-04T09:21:17;100245.75;;;14.96;41.93
34674;BME280;20879;55.668;37.858;2023-06-04T09:23:48;100232.16;;;15.17;40.82
34674;BME280;20879;55.668;37.858;2023-06-04T09:26:24;100212.66;;;14.99;40.75
34674;BME280;20879;55.668;37.858;2023-06-04T09:28:58;100207.81;;;15.18;40.04
34674;BME280;20879;55.668;37.858;2023-06-04T09:31:37;100245.75;;;15.30;40.52
34674;BME280;20879;55.668;37.858;2023-06-04T09:34:07;100232.84;;;15.57;39.91
34674;BME280;20879;55.668;37.858;2023-06-04T09:36:49;100221.38;;;15.94;39.13
34674;BME280;20879;55.668;37.858;2023-06-04T09:39:19;100226.19;;;16.38;38.92
34674;BME280;20879;55.668;37.858;2023-06-04T09:41:58;100244.66;;;16.60;37.54
34674;BME280;20879;55.668;37.858;2023-06-04T09:44:45;100235.63;;;16.42;37.60
34674;BME280;20879;55.668;37.858;2023-06-04T09:47:15;100236.91;;;15.99;38.33
34674;BME280;20879;55.668;37.858;2023-06-04T09:49:45;100233.47;;;15.67;39.02
34674;BME280;20879;55.668;37.858;2023-06-04T09:52:17;100243.63;;;15.12;38.76
34674;BME280;20879;55.668;37.858;2023-06-04T09:54:48;100234.03;;;14.78;39.42
34674;BME280;20879;55.668;37.858;2023-06-04T09:57:18;100237.91;;;14.58;39.96
34674;BME280;20879;55.668;37.858;2023-06-04T09:59:52;100250.88;;;14.64;40.34
34674;BME280;20879;55.668;37.858;2023-06-04T10:02:23;100238.78;;;14.96;39.25
34674;BME280;20879;55.668;37.858;2023-06-04T10:04:56;100250.94;;;15.32;39.06
34674;BME280;20879;55.668;37.858;2023-06-04T10:07:29;100240.31;;;15.38;38.13
34674;BME280;20879;55.668;37.858;2023-06-04T10:09:59;100202.88;;;15.41;38.01
34674;BME280;20879;55.668;37.858;2023-06-04T10:12:31;100238.69;;;15.98;38.29
34674;BME280;20879;55.668;37.858;2023-06-04T10:15:11;100246.75;;;16.20;37.29
34674;BME280;20879;55.668;37.858;2023-06-04T10:17:47;100249.50;;;16.16;36.68
34674;BME280;20879;55.668;37.858;2023-06-04T10:20:18;100218.38;;;15.78;36.66
34674;BME280;20879;55.668;37.858;2023-06-04T10:22:49;100241.44;;;15.61;37.71
34674;BME280;20879;55.668;37.858;2023-06-04T10:25:20;100239.06;;;15.53;37.80
34674;BME280;20879;55.668;37.858;2023-06-04T10:27:51;100238.72;;;15.65;37.88
34674;BME280;20879;55.668;37.858;2023-06-04T10:30:24;100234.31;;;15.67;37.32
34674;BME280;20879;55.668;37.858;2023-06-04T10:32:53;100239.94;;;15.85;37.29
34674;BME280;20879;55.668;37.858;2023-06-04T10:35:30;100234.97;;;15.76;37.17
34674;BME280;20879;55.668;37.858;2023-06-04T10:38:07;100239.63;;;15.64;37.24
34674;BME280;20879;55.668;37.858;2023-06-04T10:40:37;100241.25;;;15.68;37.63
34674;BME280;20879;55.668;37.858;2023-06-04T10:43:08;100245.63;;;15.66;37.60
34674;BME280;20879;55.668;37.858;2023-06-04T10:45:45;100233.41;;;15.68;37.76
34674;BME280;20879;55.668;37.858;2023-06-04T10:48:20;100223.84;;;16.00;37.49
34674;BME280;20879;55.668;37.858;2023-06-04T10:50:50;100219.63;;;16.24;36.95
34674;BME280;20879;55.668;37.858;2023-06-04T10:53:20;100234.91;;;16.37;37.01
34674;BME280;20879;55.668;37.858;2023-06-04T10:55:50;100236.38;;;16.46;37.06
34674;BME280;20879;55.668;37.858;2023-06-04T10:58:33;100216.59;;;16.38;36.92
34674;BME280;20879;55.668;37.858;2023-06-04T11:01:05;100241.56;;;15.89;36.77
34674;BME280;20879;55.668;37.858;2023-06-04T11:03:35;100217.66;;;15.71;36.88
34674;BME280;20879;55.668;37.858;2023-06-04T11:06:15;100228.88;;;15.44;36.57
34674;BME280;20879;55.668;37.858;2023-06-04T11:08:46;100241.75;;;15.50;36.61
34674;BME280;20879;55.668;37.858;2023-06-04T11:11:16;100242.69;;;15.80;36.69
34674;BME280;20879;55.668;37.858;2023-06-04T11:13:46;100236.91;;;16.00;36.23
34674;BME280;20879;55.668;37.858;2023-06-04T11:16:18;100213.47;;;15.97;35.90
34674;BME280;20879;55.668;37.858;2023-06-04T11:18:54;100242.59;;;15.83;36.34
34674;BME280;20879;55.668;37.858;2023-06-04T11:21:29;100236.06;;;15.67;36.15
34674;BME280;20879;55.668;37.858;2023-06-04T11:24:00;100241.78;;;15.48;36.84
34674;BME280;20879;55.668;37.858;2023-06-04T11:26:31;100191.81;;;15.31;36.72
34674;BME280;20879;55.668;37.858;2023-06-04T11:29:01;100231.88;;;15.28;37.41
34674;BME280;20879;55.668;37.858;2023-06-04T11:31:43;100231.47;;;15.11;38.47
34674;BME280;20879;55.668;37.858;2023-06-04T11:34:22;100249.50;;;15.53;38.24
34674;BME280;20879;55.668;37.858;2023-06-04T11:36:52;100247.53;;;16.24;37.58
34674;BME280;20879;55.668;37.858;2023-06-04T11:39:22;100244.66;;;16.60;36.77
34674;BME280;20879;55.668;37.858;2023-06-04T11:41:52;100245.50;;;16.89;36.34
34674;BME280;20879;55.668;37.858;2023-06-04T11:44:27;100241.41;;;17.07;35.92
34674;BME280;20879;55.668;37.858;2023-06-04T11:46:58;100239.78;;;17.04;36.12
34674;BME280;20879;55.668;37.858;2023-06-04T11:49:34;100228.88;;;16.91;35.61
34674;BME280;20879;55.668;37.858;2023-06-04T11:52:04;100253.09;;;16.41;36.19
34674;BME280;20879;55.668;37.858;2023-06-04T11:54:35;100256.34;;;16.20;36.61
34674;BME280;20879;55.668;37.858;2023-06-04T11:57:07;100248.47;;;16.50;36.85
34674;BME280;20879;55.668;37.858;2023-06-04T11:59:37;100248.81;;;16.94;35.78
34674;BME280;20879;55.668;37.858;2023-06-04T12:02:09;100246.59;;;17.08;35.63
34674;BME280;20879;55.668;37.858;2023-06-04T12:04:38;100230.50;;;16.94;35.24
34674;BME280;20879;55.668;37.858;2023-06-04T12:09:52;100198.22;;;17.20;34.70
34674;BME280;20879;55.668;37.858;2023-06-04T12:12:22;100244.06;;;16.78;34.58
34674;BME280;20879;55.668;37.858;2023-06-04T12:14:59;100241.19;;;16.59;35.02
34674;BME280;20879;55.668;37.858;2023-06-04T12:17:35;100252.34;;;16.65;35.11
34674;BME280;20879;55.668;37.858;2023-06-04T12:20:07;100255.31;;;16.54;35.37
34674;BME280;20879;55.668;37.858;2023-06-04T12:22:45;100214.00;;;16.65;34.84
34674;BME280;20879;55.668;37.858;2023-06-04T12:25:24;100249.16;;;17.10;34.02
34674;BME280;20879;55.668;37.858;2023-06-04T12:27:54;100255.28;;;17.36;33.39
34674;BME280;20879;55.668;37.858;2023-06-04T12:30:34;100240.25;;;17.66;32.99
34674;BME280;20879;55.668;37.858;2023-06-04T12:33:12;100237.06;;;17.81;32.54
34674;BME280;20879;55.668;37.858;2023-06-04T12:35:41;100253.84;;;18.01;33.75
34674;BME280;20879;55.668;37.858;2023-06-04T12:38:12;100231.19;;;17.51;32.59
34674;BME280;20879;55.668;37.858;2023-06-04T12:40:41;100241.72;;;16.71;33.21
34674;BME280;20879;55.668;37.858;2023-06-04T12:43:12;100255.81;;;16.38;33.93
34674;BME280;20879;55.668;37.858;2023-06-04T12:51:02;100258.78;;;15.96;35.81
34674;BME280;20879;55.668;37.858;2023-06-04T12:53:32;100242.84;;;16.05;35.73
34674;BME280;20879;55.668;37.858;2023-06-04T12:56:02;100256.00;;;16.31;35.61
34674;BME280;20879;55.668;37.858;2023-06-04T12:58:32;100243.97;;;16.55;34.15
34674;BME280;20879;55.668;37.858;2023-06-04T13:01:04;100245.66;;;16.56;34.76
34674;BME280;20879;55.668;37.858;2023-06-04T13:03:36;100244.63;;;16.90;34.23
34674;BME280;20879;55.668;37.858;2023-06-04T13:06:13;100238.41;;;17.19;33.79
34674;BME280;20879;55.668;37.858;2023-06-04T13:08:43;100215.97;;;17.12;32.71
34674;BME280;20879;55.668;37.858;2023-06-04T13:11:13;100214.25;;;16.57;33.70
34674;BME280;20879;55.668;37.858;2023-06-04T13:13:42;100240.72;;;16.47;34.18
34674;BME280;20879;55.668;37.858;2023-06-04T13:18:57;100195.84;;;15.43;34.83
34674;BME280;20879;55.668;37.858;2023-06-04T13:21:28;100217.06;;;15.30;35.26
34674;BME280;20879;55.668;37.858;2023-06-04T13:23:58;100251.31;;;15.16;35.47
34674;BME280;20879;55.668;37.858;2023-06-04T13:26:28;100237.75;;;15.36;35.67